Time;durP1;ratioP1;P1;durP2;ratioP2;P2;SDS_P1;SDS_P2;PMS_P1;PMS_P2;Temp;Humidity;BMP_temperature;BMP_pressure;BME280_temperature;BME280_humidity;BME280_pressure;Samples;Min_cycle;Max_cycle;Signal;HPM_P1;HPM_P2
2021/09/13 00:01:09;;;;;;;17.80;14.07;;;;;;;22.13;41.17;94317.30;828113;71;30300;-77
2021/09/13 00:16:09;;;;;;;14.40;13.00;;;;;;;22.13;40.88;94318.64;833808;71;30789;-78
2021/09/13 00:31:14;;;;;;;14.95;13.55;;;;;;;21.98;41.43;94316.38;827501;71;32869;-76
2021/09/13 00:46:09;;;;;;;14.30;13.00;;;;;;;21.97;41.58;94321.51;828986;71;29741;-77
2021/09/13 01:01:09;;;;;;;14.00;12.70;;;;;;;22.03;41.50;94321.20;828285;71;29793;-79
2021/09/13 01:16:08;;;;;;;14.73;13.32;;;;;;;21.88;41.77;94317.03;828220;71;30276;-76
2021/09/13 01:31:08;;;;;;;13.78;12.53;;;;;;;21.81;41.71;94333.72;828138;71;29667;-76
2021/09/13 01:46:15;;;;;;;14.30;12.90;;;;;;;21.86;41.29;94335.33;827399;71;32673;-79
2021/09/13 02:01:09;;;;;;;13.43;12.25;;;;;;;21.76;41.35;94333.30;833861;71;30763;-76
2021/09/13 02:16:15;;;;;;;14.35;12.98;;;;;;;21.65;41.78;94341.73;828674;71;32731;-76
2021/09/13 02:31:18;;;;;;;15.23;13.62;;;;;;;21.73;41.70;94341.45;827950;71;32770;-75
2021/09/13 02:46:08;;;;;;;14.60;12.93;;;;;;;21.60;41.96;94344.91;833983;71;29707;-78
2021/09/13 03:16:09;;;;;;;16.45;14.75;;;;;;;21.48;43.13;94365.16;828848;71;29740;-74
2021/09/13 03:31:09;;;;;;;16.45;14.75;;;;;;;21.41;43.27;94364.47;828260;71;30153;-77
2021/09/13 03:46:12;;;;;;;16.85;15.25;;;;;;;21.41;42.95;94374.36;828121;71;32076;-77
2021/09/13 04:01:16;;;;;;;16.97;15.38;;;;;;;21.52;42.63;94383.91;827235;71;32737;-75
2021/09/13 04:16:13;;;;;;;16.73;15.03;;;;;;;21.44;42.83;94397.71;822041;71;32796;-74
2021/09/13 04:31:08;;;;;;;18.30;15.90;;;;;;;21.71;42.55;94402.47;822686;71;29848;-76
2021/09/13 05:01:39;;;;;;;20.30;17.73;;;;;;;20.16;45.91;94419.64;779975;75;32979;-77
2021/09/13 12:01:21;;;;;;;12.03;10.60;;;;;;;29.67;27.50;94328.16;835699;71;32688;-77
2021/09/13 12:31:14;;;;;;;13.60;12.30;;;;;;;28.06;29.49;94303.03;820316;71;33372;-75
2021/09/13 12:46:59;;;;;;;13.00;11.80;;;;;;;28.11;29.67;94279.63;773352;72;33463;-74
2021/09/13 13:01:10;;;;;;;10.87;9.93;;;;;;;;;;822050;71;29859;-75
2021/09/13 13:16:14;;;;;;;10.30;9.50;;;;;;;28.58;28.76;94274.19;821392;71;32780;-76
2021/09/13 13:31:09;;;;;;;10.87;9.87;;;;;;;28.05;29.42;-9984.72;821757;71;30510;-78
2021/09/13 13:46:11;;;;;;;10.80;9.80;;;;;;;27.48;30.05;94266.49;820283;71;31973;-76
2021/09/13 14:16:10;;;;;;;9.60;8.70;;;;;;;27.07;30.27;94257.05;822596;71;31316;-76
2021/09/13 14:31:09;;;;;;;8.77;8.07;;;;;;;;;;828889;71;30296;-79
2021/09/13 14:47:00;;;;;;;9.00;8.10;;;;;;;26.41;30.88;94263.34;788467;71;33102;-79
2021/09/13 15:16:41;;;;;;;11.90;9.63;;;;;;;25.50;31.92;94267.02;835790;70;33252;-77
2021/09/13 15:31:09;;;;;;;9.40;8.60;;;;;;;25.05;32.54;94280.14;827949;71;30336;-75
2021/09/13 15:46:39;;;;;;;10.50;9.43;;;;;;;24.63;33.44;94270.20;792881;74;33545;-77
2021/09/13 16:01:14;;;;;;;11.10;10.10;;;;;;;24.46;35.22;94301.97;820137;71;33474;-75
2021/09/13 16:16:14;;;;;;;12.73;10.30;;;;;;;24.10;38.24;94299.20;820156;71;32822;-76
2021/09/13 16:31:32;;;;;;;10.57;9.17;;;;;;;23.98;38.93;94307.02;780070;75;33523;-77
2021/09/13 16:46:14;;;;;;;12.90;10.20;;;;;;;23.75;37.38;94301.93;827800;71;32756;-76
2021/09/13 17:01:10;;;;;;;13.50;12.10;;;;;;;23.54;39.33;94320.02;828465;71;29777;-74
2021/09/13 17:16:59;;;;;;;11.70;10.50;;;;;;;23.11;38.05;94327.77;795920;71;33378;-77
2021/09/13 17:31:08;;;;;;;14.73;13.33;;;;;;;22.78;38.57;94340.68;834178;71;29793;-78
2021/09/13 17:46:15;;;;;;;24.30;21.80;;;;;;;22.39;39.46;94350.45;827941;71;32664;-77
2021/09/13 18:01:09;;;;;;;25.43;22.73;;;;;;;22.08;39.92;94365.75;828443;71;29731;-77
2021/09/13 18:16:39;;;;;;;17.15;15.35;;;;;;;21.82;40.52;94370.58;793965;74;32954;-78
2021/09/13 18:31:08;;;;;;;14.78;13.10;;;;;;;21.76;40.31;94393.39;834803;71;29728;-78
2021/09/13 19:01:14;;;;;;;25.68;22.27;;;;;;;21.36;44.34;94421.39;833877;71;32743;-75
2021/09/13 19:16:18;;;;;;;20.05;17.17;;;;;;;21.16;45.05;94435.38;833694;71;32847;-78
2021/09/13 19:31:40;;;;;;;16.77;15.08;;;;;;;20.89;45.52;94445.98;793559;74;32929;-77
2021/09/13 19:46:21;;;;;;;15.63;14.03;;;;;;;20.68;45.47;94449.05;786943;74;33909;-77
2021/09/13 20:01:09;;;;;;;20.37;18.37;;;;;;;20.51;46.07;94458.77;811625;71;30460;-76
2021/09/13 20:16:08;;;;;;;11.60;10.30;;;;;;;20.29;45.63;94466.33;810355;71;29726;-79
2021/09/13 20:31:48;;;;;;;14.35;12.65;;;;;;;20.02;46.84;94470.73;822410;71;31294;-77
2021/09/13 20:46:09;;;;;;;14.30;12.80;;;;;;;19.85;47.69;94469.23;828597;71;29738;-81
2021/09/13 21:16:14;;;;;;;15.78;13.88;;;;;;;22.04;47.10;94499.89;827575;71;32877;-75
2021/09/13 21:31:08;;;;;;;16.50;14.40;;;;;;;22.52;44.56;94503.39;834001;71;29785;-75
2021/09/13 21:46:14;;;;;;;15.47;14.03;;;;;;;22.75;43.85;94492.02;827485;71;32721;-79
2021/09/13 22:01:14;;;;;;;14.57;13.17;;;;;;;22.83;43.44;94491.53;827417;71;32731;-79
2021/09/13 22:16:15;;;;;;;13.87;12.50;;;;;;;22.84;42.91;94477.00;828482;71;32704;-77
2021/09/13 22:31:09;;;;;;;12.50;11.20;;;;;;;22.86;42.50;94483.34;828126;71;30715;-77
2021/09/13 22:46:09;;;;;;;12.40;11.20;;;;;;;22.90;42.64;94482.23;827864;71;30238;-76
2021/09/13 23:01:15;;;;;;;10.23;9.33;;;;;;;22.82;42.56;94475.27;827482;71;32723;-79
2021/09/13 23:16:08;;;;;;;9.67;8.80;;;;;;;22.76;42.65;94486.86;828202;71;30164;-75
2021/09/13 23:31:10;;;;;;;10.47;9.47;;;;;;;22.73;42.71;94489.48;828095;71;30784;-77
2021/09/13 23:46:16;;;;;;;10.13;9.23;;;;;;;22.61;42.93;94485.17;833760;71;33110;-78
